sensor_id;sensor_type;location;lat;lon;timestamp;P1;durP1;ratioP1;P2;durP2;ratioP2
27580;SDS011;15013;52.298;7.978;2022-07-29T00:03:10;8.13;;;2.50;;
27580;SDS011;15013;52.298;7.978;2022-07-29T00:08:10;4.47;;;2.80;;
27580;SDS011;15013;52.298;7.978;2022-07-29T00:13:11;9.40;;;2.50;;
27580;SDS011;15013;52.298;7.978;2022-07-29T00:18:11;6.93;;;2.35;;
27580;SDS011;15013;52.298;7.978;2022-07-29T00:23:11;5.17;;;2.50;;
27580;SDS011;15013;52.298;7.978;2022-07-29T00:28:12;6.23;;;2.80;;
27580;SDS011;15013;52.298;7.978;2022-07-29T00:33:12;6.67;;;2.87;;
27580;SDS011;15013;52.298;7.978;2022-07-29T00:38:13;6.00;;;2.47;;
27580;SDS011;15013;52.298;7.978;2022-07-29T00:43:14;6.50;;;2.53;;
27580;SDS011;15013;52.298;7.978;2022-07-29T00:48:14;4.20;;;2.47;;
27580;SDS011;15013;52.298;7.978;2022-07-29T00:53:15;6.10;;;2.95;;
27580;SDS011;15013;52.298;7.978;2022-07-29T00:58:15;3.53;;;2.42;;
27580;SDS011;15013;52.298;7.978;2022-07-29T01:03:16;7.72;;;2.42;;
27580;SDS011;15013;52.298;7.978;2022-07-29T01:08:16;5.77;;;3.03;;
27580;SDS011;15013;52.298;7.978;2022-07-29T01:13:17;7.32;;;3.20;;
27580;SDS011;15013;52.298;7.978;2022-07-29T01:18:20;5.15;;;2.67;;
27580;SDS011;15013;52.298;7.978;2022-07-29T01:23:28;5.68;;;2.80;;
27580;SDS011;15013;52.298;7.978;2022-07-29T01:33:57;5.72;;;2.60;;
27580;SDS011;15013;52.298;7.978;2022-07-29T01:39:01;7.53;;;3.30;;
27580;SDS011;15013;52.298;7.978;2022-07-29T01:44:07;6.03;;;2.88;;
27580;SDS011;15013;52.298;7.978;2022-07-29T01:49:10;9.93;;;3.00;;
27580;SDS011;15013;52.298;7.978;2022-07-29T01:59:17;6.18;;;2.90;;
27580;SDS011;15013;52.298;7.978;2022-07-29T02:04:18;4.93;;;2.50;;
27580;SDS011;15013;52.298;7.978;2022-07-29T02:09:20;6.78;;;2.65;;
27580;SDS011;15013;52.298;7.978;2022-07-29T02:14:22;8.10;;;2.58;;
27580;SDS011;15013;52.298;7.978;2022-07-29T02:19:23;9.05;;;2.55;;
27580;SDS011;15013;52.298;7.978;2022-07-29T02:24:25;8.73;;;2.88;;
27580;SDS011;15013;52.298;7.978;2022-07-29T02:29:27;7.25;;;2.88;;
27580;SDS011;15013;52.298;7.978;2022-07-29T02:34:28;5.35;;;2.58;;
27580;SDS011;15013;52.298;7.978;2022-07-29T02:39:29;6.47;;;2.92;;
27580;SDS011;15013;52.298;7.978;2022-07-29T02:44:30;9.77;;;2.60;;
27580;SDS011;15013;52.298;7.978;2022-07-29T02:49:35;6.32;;;2.60;;
27580;SDS011;15013;52.298;7.978;2022-07-29T02:54:46;4.40;;;2.65;;
27580;SDS011;15013;52.298;7.978;2022-07-29T02:59:49;4.80;;;3.33;;
27580;SDS011;15013;52.298;7.978;2022-07-29T03:04:51;7.38;;;3.13;;
27580;SDS011;15013;52.298;7.978;2022-07-29T03:09:52;5.32;;;2.33;;
27580;SDS011;15013;52.298;7.978;2022-07-29T03:14:52;5.10;;;2.50;;
27580;SDS011;15013;52.298;7.978;2022-07-29T03:19:53;5.60;;;2.78;;
27580;SDS011;15013;52.298;7.978;2022-07-29T03:24:54;8.45;;;2.80;;
27580;SDS011;15013;52.298;7.978;2022-07-29T03:29:55;4.17;;;2.70;;
27580;SDS011;15013;52.298;7.978;2022-07-29T03:34:55;7.20;;;3.37;;
27580;SDS011;15013;52.298;7.978;2022-07-29T03:39:56;10.20;;;3.27;;
27580;SDS011;15013;52.298;7.978;2022-07-29T03:44:57;6.82;;;2.70;;
27580;SDS011;15013;52.298;7.978;2022-07-29T03:50:02;6.72;;;2.72;;
27580;SDS011;15013;52.298;7.978;2022-07-29T03:55:05;5.90;;;2.60;;
27580;SDS011;15013;52.298;7.978;2022-07-29T04:00:06;8.63;;;2.65;;
27580;SDS011;15013;52.298;7.978;2022-07-29T04:05:11;6.05;;;2.45;;
27580;SDS011;15013;52.298;7.978;2022-07-29T04:10:11;7.23;;;2.30;;
27580;SDS011;15013;52.298;7.978;2022-07-29T04:15:12;8.20;;;2.72;;
27580;SDS011;15013;52.298;7.978;2022-07-29T04:20:12;7.45;;;2.83;;
27580;SDS011;15013;52.298;7.978;2022-07-29T04:25:13;8.57;;;3.45;;
27580;SDS011;15013;52.298;7.978;2022-07-29T04:30:13;5.77;;;2.73;;
27580;SDS011;15013;52.298;7.978;2022-07-29T04:35:13;5.00;;;2.63;;
27580;SDS011;15013;52.298;7.978;2022-07-29T04:40:14;6.53;;;2.40;;
27580;SDS011;15013;52.298;7.978;2022-07-29T04:45:14;9.90;;;3.17;;
27580;SDS011;15013;52.298;7.978;2022-07-29T04:50:15;5.60;;;2.40;;
27580;SDS011;15013;52.298;7.978;2022-07-29T04:55:15;6.23;;;3.47;;
27580;SDS011;15013;52.298;7.978;2022-07-29T05:00:15;6.70;;;2.90;;
27580;SDS011;15013;52.298;7.978;2022-07-29T05:05:16;5.93;;;2.50;;
27580;SDS011;15013;52.298;7.978;2022-07-29T05:10:16;8.27;;;2.50;;
27580;SDS011;15013;52.298;7.978;2022-07-29T05:15:17;5.87;;;2.60;;
27580;SDS011;15013;52.298;7.978;2022-07-29T05:20:17;5.70;;;2.97;;
27580;SDS011;15013;52.298;7.978;2022-07-29T05:25:18;4.00;;;2.92;;
27580;SDS011;15013;52.298;7.978;2022-07-29T05:30:19;7.25;;;2.60;;
27580;SDS011;15013;52.298;7.978;2022-07-29T05:35:19;7.38;;;2.83;;
27580;SDS011;15013;52.298;7.978;2022-07-29T05:40:20;7.53;;;2.80;;
27580;SDS011;15013;52.298;7.978;2022-07-29T05:45:20;7.57;;;2.75;;
27580;SDS011;15013;52.298;7.978;2022-07-29T05:50:21;4.80;;;2.55;;
27580;SDS011;15013;52.298;7.978;2022-07-29T05:55:21;14.15;;;3.33;;
27580;SDS011;15013;52.298;7.978;2022-07-29T06:00:21;10.93;;;3.17;;
27580;SDS011;15013;52.298;7.978;2022-07-29T06:05:22;10.65;;;3.13;;
27580;SDS011;15013;52.298;7.978;2022-07-29T06:10:23;7.68;;;3.00;;
27580;SDS011;15013;52.298;7.978;2022-07-29T06:15:24;7.18;;;3.20;;
27580;SDS011;15013;52.298;7.978;2022-07-29T06:20:24;10.23;;;3.00;;
27580;SDS011;15013;52.298;7.978;2022-07-29T06:25:25;8.07;;;2.67;;
27580;SDS011;15013;52.298;7.978;2022-07-29T06:30:26;9.52;;;2.85;;
27580;SDS011;15013;52.298;7.978;2022-07-29T06:35:26;8.75;;;3.20;;
27580;SDS011;15013;52.298;7.978;2022-07-29T06:40:26;8.30;;;2.57;;
27580;SDS011;15013;52.298;7.978;2022-07-29T06:45:46;4.47;;;2.40;;
27580;SDS011;15013;52.298;7.978;2022-07-29T06:50:46;7.70;;;2.70;;
27580;SDS011;15013;52.298;7.978;2022-07-29T06:55:46;6.27;;;2.50;;
27580;SDS011;15013;52.298;7.978;2022-07-29T07:00:47;9.02;;;2.75;;
27580;SDS011;15013;52.298;7.978;2022-07-29T07:05:47;7.85;;;2.70;;
27580;SDS011;15013;52.298;7.978;2022-07-29T07:10:48;8.10;;;2.55;;
27580;SDS011;15013;52.298;7.978;2022-07-29T07:15:48;6.33;;;2.57;;
27580;SDS011;15013;52.298;7.978;2022-07-29T07:20:49;9.88;;;2.70;;
27580;SDS011;15013;52.298;7.978;2022-07-29T07:25:49;7.37;;;2.93;;
27580;SDS011;15013;52.298;7.978;2022-07-29T07:30:49;5.23;;;2.50;;
27580;SDS011;15013;52.298;7.978;2022-07-29T07:35:50;7.93;;;2.50;;
27580;SDS011;15013;52.298;7.978;2022-07-29T07:40:50;7.80;;;2.40;;
27580;SDS011;15013;52.298;7.978;2022-07-29T07:45:50;12.60;;;2.70;;
27580;SDS011;15013;52.298;7.978;2022-07-29T07:50:51;6.80;;;2.23;;
27580;SDS011;15013;52.298;7.978;2022-07-29T07:55:51;3.35;;;2.28;;
27580;SDS011;15013;52.298;7.978;2022-07-29T08:00:52;9.70;;;2.60;;
27580;SDS011;15013;52.298;7.978;2022-07-29T08:05:52;6.30;;;2.47;;
27580;SDS011;15013;52.298;7.978;2022-07-29T08:10:54;5.10;;;2.72;;
27580;SDS011;15013;52.298;7.978;2022-07-29T08:15:58;8.60;;;2.30;;
27580;SDS011;15013;52.298;7.978;2022-07-29T08:21:02;7.43;;;2.33;;
27580;SDS011;15013;52.298;7.978;2022-07-29T08:26:03;5.20;;;2.20;;
27580;SDS011;15013;52.298;7.978;2022-07-29T08:31:03;4.37;;;2.50;;
27580;SDS011;15013;52.298;7.978;2022-07-29T08:36:04;4.57;;;2.30;;
27580;SDS011;15013;52.298;7.978;2022-07-29T08:41:04;7.65;;;2.83;;
27580;SDS011;15013;52.298;7.978;2022-07-29T08:46:06;8.77;;;2.70;;
27580;SDS011;15013;52.298;7.978;2022-07-29T08:51:06;9.43;;;2.40;;
27580;SDS011;15013;52.298;7.978;2022-07-29T08:56:07;11.90;;;2.53;;
27580;SDS011;15013;52.298;7.978;2022-07-29T09:01:07;7.23;;;2.50;;
27580;SDS011;15013;52.298;7.978;2022-07-29T09:06:08;7.30;;;2.17;;
27580;SDS011;15013;52.298;7.978;2022-07-29T09:11:09;9.05;;;2.00;;
27580;SDS011;15013;52.298;7.978;2022-07-29T09:16:11;7.38;;;2.83;;
27580;SDS011;15013;52.298;7.978;2022-07-29T09:21:13;4.50;;;2.00;;
27580;SDS011;15013;52.298;7.978;2022-07-29T09:26:33;7.22;;;2.33;;
27580;SDS011;15013;52.298;7.978;2022-07-29T09:31:38;8.85;;;2.35;;
27580;SDS011;15013;52.298;7.978;2022-07-29T09:36:39;7.47;;;2.10;;
27580;SDS011;15013;52.298;7.978;2022-07-29T09:41:47;5.45;;;2.45;;
27580;SDS011;15013;52.298;7.978;2022-07-29T09:52:12;5.60;;;2.88;;
27580;SDS011;15013;52.298;7.978;2022-07-29T09:57:25;6.93;;;2.50;;
27580;SDS011;15013;52.298;7.978;2022-07-29T10:02:29;6.25;;;2.38;;
27580;SDS011;15013;52.298;7.978;2022-07-29T10:07:50;3.73;;;2.70;;
27580;SDS011;15013;52.298;7.978;2022-07-29T10:12:52;6.00;;;2.42;;
27580;SDS011;15013;52.298;7.978;2022-07-29T10:17:53;8.68;;;2.35;;
27580;SDS011;15013;52.298;7.978;2022-07-29T10:22:54;7.18;;;2.58;;
27580;SDS011;15013;52.298;7.978;2022-07-29T10:27:55;8.13;;;3.05;;
27580;SDS011;15013;52.298;7.978;2022-07-29T10:38:02;6.05;;;2.90;;
27580;SDS011;15013;52.298;7.978;2022-07-29T10:43:19;8.90;;;3.25;;
27580;SDS011;15013;52.298;7.978;2022-07-29T10:48:22;6.90;;;2.80;;
27580;SDS011;15013;52.298;7.978;2022-07-29T10:53:23;7.85;;;3.00;;
27580;SDS011;15013;52.298;7.978;2022-07-29T10:58:23;4.40;;;2.67;;
27580;SDS011;15013;52.298;7.978;2022-07-29T11:08:39;5.63;;;2.80;;
27580;SDS011;15013;52.298;7.978;2022-07-29T11:24:15;9.65;;;2.70;;
27580;SDS011;15013;52.298;7.978;2022-07-29T11:39:27;7.05;;;2.50;;
27580;SDS011;15013;52.298;7.978;2022-07-29T11:49:47;7.15;;;3.28;;
27580;SDS011;15013;52.298;7.978;2022-07-29T11:54:48;4.97;;;2.88;;
27580;SDS011;15013;52.298;7.978;2022-07-29T11:59:48;5.97;;;2.92;;
27580;SDS011;15013;52.298;7.978;2022-07-29T12:04:52;9.70;;;3.47;;
27580;SDS011;15013;52.298;7.978;2022-07-29T12:09:53;9.90;;;3.15;;
27580;SDS011;15013;52.298;7.978;2022-07-29T12:14:54;7.78;;;2.78;;
27580;SDS011;15013;52.298;7.978;2022-07-29T12:19:55;7.30;;;2.90;;
27580;SDS011;15013;52.298;7.978;2022-07-29T12:25:00;9.90;;;2.75;;
27580;SDS011;15013;52.298;7.978;2022-07-29T12:30:10;7.40;;;2.80;;
27580;SDS011;15013;52.298;7.978;2022-07-29T12:35:15;8.85;;;2.78;;
27580;SDS011;15013;52.298;7.978;2022-07-29T12:40:16;9.70;;;3.67;;
27580;SDS011;15013;52.298;7.978;2022-07-29T12:45:16;5.70;;;2.97;;
27580;SDS011;15013;52.298;7.978;2022-07-29T12:50:17;9.03;;;3.20;;
27580;SDS011;15013;52.298;7.978;2022-07-29T13:00:37;13.27;;;3.25;;
27580;SDS011;15013;52.298;7.978;2022-07-29T13:05:43;10.57;;;3.53;;
27580;SDS011;15013;52.298;7.978;2022-07-29T13:10:44;10.00;;;4.00;;
27580;SDS011;15013;52.298;7.978;2022-07-29T13:15:44;10.67;;;3.23;;
27580;SDS011;15013;52.298;7.978;2022-07-29T13:20:47;9.00;;;3.55;;
27580;SDS011;15013;52.298;7.978;2022-07-29T13:25:48;7.43;;;4.00;;
27580;SDS011;15013;52.298;7.978;2022-07-29T13:30:48;6.82;;;3.63;;
27580;SDS011;15013;52.298;7.978;2022-07-29T13:35:48;7.60;;;3.97;;
27580;SDS011;15013;52.298;7.978;2022-07-29T13:40:49;14.40;;;4.70;;
27580;SDS011;15013;52.298;7.978;2022-07-29T13:45:49;8.67;;;3.80;;
27580;SDS011;15013;52.298;7.978;2022-07-29T13:50:49;12.67;;;3.93;;
27580;SDS011;15013;52.298;7.978;2022-07-29T13:55:50;11.60;;;4.35;;
27580;SDS011;15013;52.298;7.978;2022-07-29T14:00:51;11.90;;;4.68;;
27580;SDS011;15013;52.298;7.978;2022-07-29T14:05:51;14.07;;;4.23;;
27580;SDS011;15013;52.298;7.978;2022-07-29T14:10:52;15.83;;;4.07;;
27580;SDS011;15013;52.298;7.978;2022-07-29T14:15:52;10.03;;;4.13;;
27580;SDS011;15013;52.298;7.978;2022-07-29T14:20:52;6.43;;;3.67;;
27580;SDS011;15013;52.298;7.978;2022-07-29T14:25:53;8.32;;;4.13;;
27580;SDS011;15013;52.298;7.978;2022-07-29T14:30:53;6.10;;;3.10;;
27580;SDS011;15013;52.298;7.978;2022-07-29T14:35:54;5.73;;;3.10;;
27580;SDS011;15013;52.298;7.978;2022-07-29T14:40:54;10.33;;;3.47;;
27580;SDS011;15013;52.298;7.978;2022-07-29T14:45:54;11.03;;;3.47;;
27580;SDS011;15013;52.298;7.978;2022-07-29T14:50:55;9.82;;;3.45;;
27580;SDS011;15013;52.298;7.978;2022-07-29T14:55:56;9.93;;;3.50;;
27580;SDS011;15013;52.298;7.978;2022-07-29T15:00:56;6.50;;;3.33;;
27580;SDS011;15013;52.298;7.978;2022-07-29T15:05:56;9.83;;;3.07;;
27580;SDS011;15013;52.298;7.978;2022-07-29T15:10:57;6.43;;;2.90;;
27580;SDS011;15013;52.298;7.978;2022-07-29T15:15:59;11.35;;;2.97;;
27580;SDS011;15013;52.298;7.978;2022-07-29T15:20:59;8.30;;;3.50;;
27580;SDS011;15013;52.298;7.978;2022-07-29T15:26:02;7.15;;;3.42;;
27580;SDS011;15013;52.298;7.978;2022-07-29T15:31:02;6.20;;;2.80;;
27580;SDS011;15013;52.298;7.978;2022-07-29T15:36:03;8.18;;;2.83;;
27580;SDS011;15013;52.298;7.978;2022-07-29T15:41:04;9.73;;;2.80;;
27580;SDS011;15013;52.298;7.978;2022-07-29T15:46:05;5.03;;;2.70;;
27580;SDS011;15013;52.298;7.978;2022-07-29T15:51:24;7.78;;;3.10;;
27580;SDS011;15013;52.298;7.978;2022-07-29T15:56:24;11.13;;;2.80;;
27580;SDS011;15013;52.298;7.978;2022-07-29T16:01:24;6.83;;;2.20;;
27580;SDS011;15013;52.298;7.978;2022-07-29T16:06:25;6.50;;;3.05;;
27580;SDS011;15013;52.298;7.978;2022-07-29T16:11:26;5.43;;;2.80;;
27580;SDS011;15013;52.298;7.978;2022-07-29T16:16:26;6.27;;;3.17;;
27580;SDS011;15013;52.298;7.978;2022-07-29T16:21:27;7.97;;;2.85;;
27580;SDS011;15013;52.298;7.978;2022-07-29T16:26:27;8.47;;;3.03;;
27580;SDS011;15013;52.298;7.978;2022-07-29T16:31:28;4.88;;;2.78;;
27580;SDS011;15013;52.298;7.978;2022-07-29T16:36:28;8.25;;;2.78;;
27580;SDS011;15013;52.298;7.978;2022-07-29T16:41:28;4.45;;;2.80;;
27580;SDS011;15013;52.298;7.978;2022-07-29T16:46:29;5.13;;;2.70;;
27580;SDS011;15013;52.298;7.978;2022-07-29T16:51:29;10.17;;;3.23;;
27580;SDS011;15013;52.298;7.978;2022-07-29T16:56:30;8.77;;;2.80;;
27580;SDS011;15013;52.298;7.978;2022-07-29T17:01:30;3.97;;;2.90;;
27580;SDS011;15013;52.298;7.978;2022-07-29T17:06:34;7.77;;;2.93;;
27580;SDS011;15013;52.298;7.978;2022-07-29T17:11:35;9.05;;;3.35;;
27580;SDS011;15013;52.298;7.978;2022-07-29T17:16:35;6.88;;;2.85;;
27580;SDS011;15013;52.298;7.978;2022-07-29T17:21:36;11.57;;;3.27;;
27580;SDS011;15013;52.298;7.978;2022-07-29T17:26:36;7.87;;;3.60;;
27580;SDS011;15013;52.298;7.978;2022-07-29T17:31:38;8.35;;;3.95;;
27580;SDS011;15013;52.298;7.978;2022-07-29T17:36:39;8.77;;;3.45;;
27580;SDS011;15013;52.298;7.978;2022-07-29T17:41:39;12.63;;;4.50;;
27580;SDS011;15013;52.298;7.978;2022-07-29T17:46:40;13.27;;;9.93;;
27580;SDS011;15013;52.298;7.978;2022-07-29T17:51:40;43.78;;;36.47;;
27580;SDS011;15013;52.298;7.978;2022-07-29T17:56:40;67.63;;;60.47;;
27580;SDS011;15013;52.298;7.978;2022-07-29T18:01:41;32.47;;;29.37;;
27580;SDS011;15013;52.298;7.978;2022-07-29T18:06:41;8.07;;;3.90;;
27580;SDS011;15013;52.298;7.978;2022-07-29T18:11:42;7.70;;;3.65;;
27580;SDS011;15013;52.298;7.978;2022-07-29T18:16:42;8.27;;;4.33;;
27580;SDS011;15013;52.298;7.978;2022-07-29T18:21:42;6.43;;;3.70;;
27580;SDS011;15013;52.298;7.978;2022-07-29T18:26:43;9.93;;;4.10;;
27580;SDS011;15013;52.298;7.978;2022-07-29T18:31:43;6.17;;;3.03;;
27580;SDS011;15013;52.298;7.978;2022-07-29T18:36:44;12.80;;;3.67;;
27580;SDS011;15013;52.298;7.978;2022-07-29T18:41:44;6.07;;;3.47;;
27580;SDS011;15013;52.298;7.978;2022-07-29T18:46:45;5.47;;;3.47;;
27580;SDS011;15013;52.298;7.978;2022-07-29T18:51:46;7.20;;;3.35;;
27580;SDS011;15013;52.298;7.978;2022-07-29T18:56:46;8.77;;;3.28;;
27580;SDS011;15013;52.298;7.978;2022-07-29T19:01:47;7.60;;;3.67;;
27580;SDS011;15013;52.298;7.978;2022-07-29T19:06:47;8.23;;;3.85;;
27580;SDS011;15013;52.298;7.978;2022-07-29T19:11:48;11.67;;;3.83;;
27580;SDS011;15013;52.298;7.978;2022-07-29T19:16:48;10.43;;;4.20;;
27580;SDS011;15013;52.298;7.978;2022-07-29T19:21:48;7.93;;;3.50;;
27580;SDS011;15013;52.298;7.978;2022-07-29T19:26:49;11.73;;;4.43;;
27580;SDS011;15013;52.298;7.978;2022-07-29T19:31:49;7.82;;;3.53;;
27580;SDS011;15013;52.298;7.978;2022-07-29T19:36:50;7.83;;;3.30;;
27580;SDS011;15013;52.298;7.978;2022-07-29T19:41:50;8.95;;;3.78;;
27580;SDS011;15013;52.298;7.978;2022-07-29T19:46:51;6.82;;;3.75;;
27580;SDS011;15013;52.298;7.978;2022-07-29T19:51:51;7.67;;;3.80;;
27580;SDS011;15013;52.298;7.978;2022-07-29T19:56:52;7.32;;;3.20;;
27580;SDS011;15013;52.298;7.978;2022-07-29T20:01:52;10.60;;;3.73;;
27580;SDS011;15013;52.298;7.978;2022-07-29T20:06:52;10.30;;;4.40;;
27580;SDS011;15013;52.298;7.978;2022-07-29T20:11:55;8.40;;;3.53;;
27580;SDS011;15013;52.298;7.978;2022-07-29T20:16:55;7.72;;;3.53;;
27580;SDS011;15013;52.298;7.978;2022-07-29T20:21:56;9.70;;;4.23;;
27580;SDS011;15013;52.298;7.978;2022-07-29T20:26:56;11.15;;;3.78;;
27580;SDS011;15013;52.298;7.978;2022-07-29T20:31:56;9.00;;;4.60;;
27580;SDS011;15013;52.298;7.978;2022-07-29T20:36:57;7.90;;;3.80;;
27580;SDS011;15013;52.298;7.978;2022-07-29T20:41:57;7.90;;;4.53;;
27580;SDS011;15013;52.298;7.978;2022-07-29T20:46:58;8.97;;;3.87;;
27580;SDS011;15013;52.298;7.978;2022-07-29T20:51:58;7.70;;;4.17;;
27580;SDS011;15013;52.298;7.978;2022-07-29T20:56:58;13.88;;;4.18;;
27580;SDS011;15013;52.298;7.978;2022-07-29T21:01:59;10.07;;;4.20;;
27580;SDS011;15013;52.298;7.978;2022-07-29T21:06:59;6.20;;;4.03;;
27580;SDS011;15013;52.298;7.978;2022-07-29T21:11:59;6.97;;;4.07;;
27580;SDS011;15013;52.298;7.978;2022-07-29T21:17:01;9.35;;;5.00;;
27580;SDS011;15013;52.298;7.978;2022-07-29T21:22:04;9.40;;;4.30;;
27580;SDS011;15013;52.298;7.978;2022-07-29T21:27:05;8.60;;;4.40;;
27580;SDS011;15013;52.298;7.978;2022-07-29T21:32:23;11.13;;;5.45;;
27580;SDS011;15013;52.298;7.978;2022-07-29T21:37:25;9.68;;;5.28;;
27580;SDS011;15013;52.298;7.978;2022-07-29T21:42:26;8.18;;;5.40;;
27580;SDS011;15013;52.298;7.978;2022-07-29T21:47:26;9.68;;;6.10;;
27580;SDS011;15013;52.298;7.978;2022-07-29T21:52:26;9.00;;;5.87;;
27580;SDS011;15013;52.298;7.978;2022-07-29T21:57:27;10.52;;;6.13;;
27580;SDS011;15013;52.298;7.978;2022-07-29T22:02:27;8.50;;;5.70;;
27580;SDS011;15013;52.298;7.978;2022-07-29T22:07:28;8.87;;;5.90;;
27580;SDS011;15013;52.298;7.978;2022-07-29T22:12:28;7.15;;;6.13;;
27580;SDS011;15013;52.298;7.978;2022-07-29T22:17:28;10.47;;;6.07;;
27580;SDS011;15013;52.298;7.978;2022-07-29T22:22:29;9.17;;;6.00;;
27580;SDS011;15013;52.298;7.978;2022-07-29T22:27:29;10.40;;;6.90;;
27580;SDS011;15013;52.298;7.978;2022-07-29T22:32:30;8.80;;;6.97;;
27580;SDS011;15013;52.298;7.978;2022-07-29T22:37:30;12.63;;;6.10;;
27580;SDS011;15013;52.298;7.978;2022-07-29T22:42:31;9.40;;;5.30;;
27580;SDS011;15013;52.298;7.978;2022-07-29T22:47:31;7.60;;;6.35;;
27580;SDS011;15013;52.298;7.978;2022-07-29T22:52:32;9.63;;;6.32;;
27580;SDS011;15013;52.298;7.978;2022-07-29T22:57:32;7.60;;;5.70;;
27580;SDS011;15013;52.298;7.978;2022-07-29T23:02:33;13.03;;;6.33;;
27580;SDS011;15013;52.298;7.978;2022-07-29T23:07:35;7.45;;;6.32;;
27580;SDS011;15013;52.298;7.978;2022-07-29T23:12:35;9.57;;;6.70;;
27580;SDS011;15013;52.298;7.978;2022-07-29T23:17:36;8.70;;;5.93;;
27580;SDS011;15013;52.298;7.978;2022-07-29T23:22:36;10.33;;;7.03;;
27580;SDS011;15013;52.298;7.978;2022-07-29T23:27:36;10.23;;;6.20;;
27580;SDS011;15013;52.298;7.978;2022-07-29T23:32:37;11.03;;;6.40;;
27580;SDS011;15013;52.298;7.978;2022-07-29T23:37:37;12.52;;;7.30;;
27580;SDS011;15013;52.298;7.978;2022-07-29T23:42:37;11.67;;;7.47;;
27580;SDS011;15013;52.298;7.978;2022-07-29T23:47:38;15.77;;;7.07;;
27580;SDS011;15013;52.298;7.978;2022-07-29T23:52:38;11.85;;;6.50;;
27580;SDS011;15013;52.298;7.978;2022-07-29T23:57:39;12.68;;;6.93;;
